sensor_id;sensor_type;location;lat;lon;timestamp;P1;durP1;ratioP1;P2;durP2;ratioP2
3625;SDS011;1827;50.534;8.316;2023-04-06T00:00:52;25.03;;;8.33;;
3625;SDS011;1827;50.534;8.316;2023-04-06T00:03:18;38.13;;;9.27;;
3625;SDS011;1827;50.534;8.316;2023-04-06T00:05:44;20.97;;;8.30;;
3625;SDS011;1827;50.534;8.316;2023-04-06T00:08:10;26.07;;;8.17;;
3625;SDS011;1827;50.534;8.316;2023-04-06T00:10:36;21.77;;;8.23;;
3625;SDS011;1827;50.534;8.316;2023-04-06T00:13:02;20.77;;;8.40;;
3625;SDS011;1827;50.534;8.316;2023-04-06T00:15:27;21.33;;;7.43;;
3625;SDS011;1827;50.534;8.316;2023-04-06T00:17:53;23.00;;;7.95;;
3625;SDS011;1827;50.534;8.316;2023-04-06T00:20:19;20.13;;;7.00;;
3625;SDS011;1827;50.534;8.316;2023-04-06T00:22:44;23.30;;;7.95;;
3625;SDS011;1827;50.534;8.316;2023-04-06T00:25:11;21.57;;;7.83;;
3625;SDS011;1827;50.534;8.316;2023-04-06T08:12:22;26.27;;;9.30;;
3625;SDS011;1827;50.534;8.316;2023-04-06T08:14:48;22.97;;;8.83;;
3625;SDS011;1827;50.534;8.316;2023-04-06T08:17:14;25.77;;;9.20;;
3625;SDS011;1827;50.534;8.316;2023-04-06T08:19:42;27.33;;;9.13;;
3625;SDS011;1827;50.534;8.316;2023-04-06T08:22:09;26.00;;;8.80;;
3625;SDS011;1827;50.534;8.316;2023-04-06T08:24:35;28.63;;;10.10;;
3625;SDS011;1827;50.534;8.316;2023-04-06T08:27:00;25.20;;;9.07;;
3625;SDS011;1827;50.534;8.316;2023-04-06T08:29:26;26.33;;;9.70;;
3625;SDS011;1827;50.534;8.316;2023-04-06T08:31:52;24.23;;;9.33;;
3625;SDS011;1827;50.534;8.316;2023-04-06T08:34:18;27.53;;;10.00;;
3625;SDS011;1827;50.534;8.316;2023-04-06T08:36:43;23.57;;;9.53;;
3625;SDS011;1827;50.534;8.316;2023-04-06T08:39:10;30.00;;;10.50;;
3625;SDS011;1827;50.534;8.316;2023-04-06T08:41:36;23.60;;;9.47;;
3625;SDS011;1827;50.534;8.316;2023-04-06T08:44:02;24.97;;;9.57;;
3625;SDS011;1827;50.534;8.316;2023-04-06T08:46:30;23.80;;;9.17;;
3625;SDS011;1827;50.534;8.316;2023-04-06T08:48:59;31.67;;;10.03;;
3625;SDS011;1827;50.534;8.316;2023-04-06T08:51:26;29.87;;;10.10;;
3625;SDS011;1827;50.534;8.316;2023-04-06T08:53:53;28.60;;;10.07;;
3625;SDS011;1827;50.534;8.316;2023-04-06T08:56:24;26.63;;;9.40;;
3625;SDS011;1827;50.534;8.316;2023-04-06T08:58:54;24.40;;;9.77;;
3625;SDS011;1827;50.534;8.316;2023-04-06T09:01:22;31.30;;;10.00;;
3625;SDS011;1827;50.534;8.316;2023-04-06T09:03:51;32.63;;;9.60;;
3625;SDS011;1827;50.534;8.316;2023-04-06T09:06:22;26.43;;;9.93;;
3625;SDS011;1827;50.534;8.316;2023-04-06T09:08:48;25.73;;;9.90;;
3625;SDS011;1827;50.534;8.316;2023-04-06T09:11:14;25.20;;;10.30;;
3625;SDS011;1827;50.534;8.316;2023-04-06T09:13:53;31.40;;;9.53;;
3625;SDS011;1827;50.534;8.316;2023-04-06T09:16:21;25.20;;;9.90;;
3625;SDS011;1827;50.534;8.316;2023-04-06T09:18:48;25.00;;;9.00;;
3625;SDS011;1827;50.534;8.316;2023-04-06T09:21:18;29.20;;;10.37;;
3625;SDS011;1827;50.534;8.316;2023-04-06T09:23:44;25.83;;;10.13;;
3625;SDS011;1827;50.534;8.316;2023-04-06T09:26:12;30.23;;;9.57;;
3625;SDS011;1827;50.534;8.316;2023-04-06T09:31:22;28.00;;;10.10;;
3625;SDS011;1827;50.534;8.316;2023-04-06T09:33:48;32.63;;;10.20;;
3625;SDS011;1827;50.534;8.316;2023-04-06T09:36:15;30.13;;;9.77;;
3625;SDS011;1827;50.534;8.316;2023-04-06T09:39:00;23.77;;;9.40;;
3625;SDS011;1827;50.534;8.316;2023-04-06T09:41:34;28.90;;;9.87;;
3625;SDS011;1827;50.534;8.316;2023-04-06T09:44:07;27.70;;;9.80;;
3625;SDS011;1827;50.534;8.316;2023-04-06T09:46:35;26.37;;;9.57;;
3625;SDS011;1827;50.534;8.316;2023-04-06T09:49:03;31.83;;;10.03;;
3625;SDS011;1827;50.534;8.316;2023-04-06T09:54:23;24.97;;;9.60;;
3625;SDS011;1827;50.534;8.316;2023-04-06T10:05:55;26.67;;;9.47;;
3625;SDS011;1827;50.534;8.316;2023-04-06T10:08:27;27.17;;;9.10;;
3625;SDS011;1827;50.534;8.316;2023-04-06T10:10:54;28.90;;;10.23;;
3625;SDS011;1827;50.534;8.316;2023-04-06T10:13:20;25.30;;;10.20;;
3625;SDS011;1827;50.534;8.316;2023-04-06T10:15:48;30.30;;;10.20;;
3625;SDS011;1827;50.534;8.316;2023-04-06T10:18:14;25.30;;;9.93;;
3625;SDS011;1827;50.534;8.316;2023-04-06T10:20:54;25.90;;;9.63;;
3625;SDS011;1827;50.534;8.316;2023-04-06T10:23:35;28.53;;;9.90;;
3625;SDS011;1827;50.534;8.316;2023-04-06T10:26:14;28.10;;;9.73;;
3625;SDS011;1827;50.534;8.316;2023-04-06T10:28:42;29.23;;;10.40;;
3625;SDS011;1827;50.534;8.316;2023-04-06T10:31:09;26.77;;;10.07;;
3625;SDS011;1827;50.534;8.316;2023-04-06T10:33:35;28.33;;;9.30;;
3625;SDS011;1827;50.534;8.316;2023-04-06T10:36:10;28.20;;;10.30;;
3625;SDS011;1827;50.534;8.316;2023-04-06T10:39:01;27.33;;;10.27;;
3625;SDS011;1827;50.534;8.316;2023-04-06T10:41:44;28.30;;;10.13;;
3625;SDS011;1827;50.534;8.316;2023-04-06T10:44:21;29.17;;;10.90;;
3625;SDS011;1827;50.534;8.316;2023-04-06T10:46:52;26.20;;;9.47;;
3625;SDS011;1827;50.534;8.316;2023-04-06T10:49:20;31.63;;;9.70;;
3625;SDS011;1827;50.534;8.316;2023-04-06T10:51:50;27.13;;;10.27;;
3625;SDS011;1827;50.534;8.316;2023-04-06T10:54:18;28.80;;;9.93;;
3625;SDS011;1827;50.534;8.316;2023-04-06T10:56:45;27.33;;;10.03;;
3625;SDS011;1827;50.534;8.316;2023-04-06T10:59:11;29.70;;;11.30;;
3625;SDS011;1827;50.534;8.316;2023-04-06T11:01:37;29.93;;;10.90;;
3625;SDS011;1827;50.534;8.316;2023-04-06T11:04:02;30.33;;;10.30;;
3625;SDS011;1827;50.534;8.316;2023-04-06T11:06:29;25.23;;;9.70;;
3625;SDS011;1827;50.534;8.316;2023-04-06T11:08:56;31.97;;;11.30;;
3625;SDS011;1827;50.534;8.316;2023-04-06T11:11:23;28.70;;;9.97;;
3625;SDS011;1827;50.534;8.316;2023-04-06T11:16:29;25.50;;;9.60;;
3625;SDS011;1827;50.534;8.316;2023-04-06T11:19:01;28.83;;;9.87;;
3625;SDS011;1827;50.534;8.316;2023-04-06T11:26:38;26.10;;;8.70;;
3625;SDS011;1827;50.534;8.316;2023-04-06T11:29:06;28.87;;;8.93;;
3625;SDS011;1827;50.534;8.316;2023-04-06T11:31:36;28.17;;;9.00;;
3625;SDS011;1827;50.534;8.316;2023-04-06T11:34:13;24.93;;;8.90;;
3625;SDS011;1827;50.534;8.316;2023-04-06T11:36:47;27.60;;;10.00;;
3625;SDS011;1827;50.534;8.316;2023-04-06T11:39:21;29.07;;;9.70;;
3625;SDS011;1827;50.534;8.316;2023-04-06T11:41:57;36.07;;;9.23;;
3625;SDS011;1827;50.534;8.316;2023-04-06T11:44:34;40.77;;;9.13;;
3625;SDS011;1827;50.534;8.316;2023-04-06T11:47:11;28.70;;;9.43;;
3625;SDS011;1827;50.534;8.316;2023-04-06T11:49:38;25.33;;;8.00;;
3625;SDS011;1827;50.534;8.316;2023-04-06T11:52:15;25.87;;;9.53;;
3625;SDS011;1827;50.534;8.316;2023-04-06T11:54:41;25.47;;;9.07;;
3625;SDS011;1827;50.534;8.316;2023-04-06T11:57:07;27.03;;;9.10;;
3625;SDS011;1827;50.534;8.316;2023-04-06T11:59:34;25.40;;;8.80;;
3625;SDS011;1827;50.534;8.316;2023-04-06T12:02:03;27.27;;;8.77;;
3625;SDS011;1827;50.534;8.316;2023-04-06T12:04:30;24.17;;;9.00;;
3625;SDS011;1827;50.534;8.316;2023-04-06T12:06:56;22.93;;;8.10;;
3625;SDS011;1827;50.534;8.316;2023-04-06T12:09:22;24.40;;;8.70;;
3625;SDS011;1827;50.534;8.316;2023-04-06T12:11:47;23.20;;;9.10;;
3625;SDS011;1827;50.534;8.316;2023-04-06T12:14:13;27.20;;;8.97;;
3625;SDS011;1827;50.534;8.316;2023-04-06T12:16:39;26.20;;;9.13;;
3625;SDS011;1827;50.534;8.316;2023-04-06T12:19:05;28.33;;;9.43;;
3625;SDS011;1827;50.534;8.316;2023-04-06T12:21:32;25.77;;;8.50;;
3625;SDS011;1827;50.534;8.316;2023-04-06T12:24:00;23.30;;;7.60;;
3625;SDS011;1827;50.534;8.316;2023-04-06T12:26:26;28.50;;;8.47;;
3625;SDS011;1827;50.534;8.316;2023-04-06T12:28:52;33.07;;;8.50;;
3625;SDS011;1827;50.534;8.316;2023-04-06T12:31:19;23.90;;;7.87;;
3625;SDS011;1827;50.534;8.316;2023-04-06T12:33:46;23.23;;;8.00;;
3625;SDS011;1827;50.534;8.316;2023-04-06T12:36:16;24.60;;;8.10;;
3625;SDS011;1827;50.534;8.316;2023-04-06T12:38:47;24.07;;;8.30;;
3625;SDS011;1827;50.534;8.316;2023-04-06T12:41:14;21.93;;;8.10;;
3625;SDS011;1827;50.534;8.316;2023-04-06T12:43:40;24.83;;;8.63;;
3625;SDS011;1827;50.534;8.316;2023-04-06T12:46:07;25.83;;;8.27;;
3625;SDS011;1827;50.534;8.316;2023-04-06T12:48:33;24.77;;;8.23;;
3625;SDS011;1827;50.534;8.316;2023-04-06T12:51:00;24.20;;;7.90;;
3625;SDS011;1827;50.534;8.316;2023-04-06T12:53:27;22.43;;;8.00;;
3625;SDS011;1827;50.534;8.316;2023-04-06T12:55:56;23.90;;;8.47;;
3625;SDS011;1827;50.534;8.316;2023-04-06T12:58:22;25.47;;;8.57;;
3625;SDS011;1827;50.534;8.316;2023-04-06T13:00:48;28.30;;;8.83;;
3625;SDS011;1827;50.534;8.316;2023-04-06T13:03:15;30.63;;;9.20;;
3625;SDS011;1827;50.534;8.316;2023-04-06T13:05:45;22.70;;;8.43;;
3625;SDS011;1827;50.534;8.316;2023-04-06T13:08:15;24.17;;;8.90;;
3625;SDS011;1827;50.534;8.316;2023-04-06T13:10:48;26.97;;;8.20;;
3625;SDS011;1827;50.534;8.316;2023-04-06T13:13:15;25.37;;;8.73;;
3625;SDS011;1827;50.534;8.316;2023-04-06T13:15:42;25.63;;;9.30;;
3625;SDS011;1827;50.534;8.316;2023-04-06T13:18:08;28.40;;;10.00;;
3625;SDS011;1827;50.534;8.316;2023-04-06T13:20:34;26.10;;;9.80;;
3625;SDS011;1827;50.534;8.316;2023-04-06T13:23:00;33.37;;;9.90;;
3625;SDS011;1827;50.534;8.316;2023-04-06T13:25:26;26.53;;;9.70;;
3625;SDS011;1827;50.534;8.316;2023-04-06T13:27:53;23.43;;;8.57;;
3625;SDS011;1827;50.534;8.316;2023-04-06T13:30:20;24.80;;;9.40;;
3625;SDS011;1827;50.534;8.316;2023-04-06T13:32:46;26.30;;;9.23;;
3625;SDS011;1827;50.534;8.316;2023-04-06T13:35:12;28.07;;;10.10;;
3625;SDS011;1827;50.534;8.316;2023-04-06T13:37:38;27.00;;;9.10;;
3625;SDS011;1827;50.534;8.316;2023-04-06T13:40:04;25.53;;;9.10;;
3625;SDS011;1827;50.534;8.316;2023-04-06T13:42:31;24.93;;;9.30;;
3625;SDS011;1827;50.534;8.316;2023-04-06T13:44:57;27.90;;;9.10;;
3625;SDS011;1827;50.534;8.316;2023-04-06T13:47:24;27.37;;;9.80;;
3625;SDS011;1827;50.534;8.316;2023-04-06T13:49:50;27.50;;;9.27;;
3625;SDS011;1827;50.534;8.316;2023-04-06T13:52:17;29.90;;;9.80;;
3625;SDS011;1827;50.534;8.316;2023-04-06T13:54:44;26.40;;;9.33;;
3625;SDS011;1827;50.534;8.316;2023-04-06T13:57:10;29.10;;;9.60;;
3625;SDS011;1827;50.534;8.316;2023-04-06T13:59:36;32.10;;;9.07;;
3625;SDS011;1827;50.534;8.316;2023-04-06T14:02:03;24.50;;;9.10;;
3625;SDS011;1827;50.534;8.316;2023-04-06T14:04:30;24.20;;;8.77;;
3625;SDS011;1827;50.534;8.316;2023-04-06T14:06:57;26.77;;;9.60;;
3625;SDS011;1827;50.534;8.316;2023-04-06T14:09:23;26.00;;;8.70;;
3625;SDS011;1827;50.534;8.316;2023-04-06T14:11:49;29.27;;;9.70;;
3625;SDS011;1827;50.534;8.316;2023-04-06T14:14:15;24.63;;;8.80;;
3625;SDS011;1827;50.534;8.316;2023-04-06T14:16:42;21.83;;;7.97;;
3625;SDS011;1827;50.534;8.316;2023-04-06T14:19:09;23.10;;;8.13;;
3625;SDS011;1827;50.534;8.316;2023-04-06T14:21:40;22.07;;;7.87;;
3625;SDS011;1827;50.534;8.316;2023-04-06T14:24:09;27.23;;;8.20;;
3625;SDS011;1827;50.534;8.316;2023-04-06T14:26:36;23.07;;;8.57;;
3625;SDS011;1827;50.534;8.316;2023-04-06T14:29:02;24.47;;;8.70;;
3625;SDS011;1827;50.534;8.316;2023-04-06T14:31:29;25.10;;;8.10;;
3625;SDS011;1827;50.534;8.316;2023-04-06T14:33:55;22.53;;;8.30;;
3625;SDS011;1827;50.534;8.316;2023-04-06T14:36:21;25.80;;;9.30;;
3625;SDS011;1827;50.534;8.316;2023-04-06T14:38:47;23.43;;;8.70;;
3625;SDS011;1827;50.534;8.316;2023-04-06T14:41:16;23.07;;;8.93;;
3625;SDS011;1827;50.534;8.316;2023-04-06T14:43:43;27.43;;;8.37;;
3625;SDS011;1827;50.534;8.316;2023-04-06T14:46:09;27.77;;;10.23;;
3625;SDS011;1827;50.534;8.316;2023-04-06T14:48:35;24.80;;;8.93;;
3625;SDS011;1827;50.534;8.316;2023-04-06T14:51:01;27.40;;;10.07;;
3625;SDS011;1827;50.534;8.316;2023-04-06T14:53:28;28.53;;;9.27;;
3625;SDS011;1827;50.534;8.316;2023-04-06T14:55:54;27.27;;;8.97;;
3625;SDS011;1827;50.534;8.316;2023-04-06T14:58:22;23.63;;;8.00;;
3625;SDS011;1827;50.534;8.316;2023-04-06T15:00:48;27.50;;;8.60;;
3625;SDS011;1827;50.534;8.316;2023-04-06T15:03:15;24.50;;;8.97;;
3625;SDS011;1827;50.534;8.316;2023-04-06T15:05:41;27.57;;;10.37;;
3625;SDS011;1827;50.534;8.316;2023-04-06T15:08:07;26.13;;;8.73;;
3625;SDS011;1827;50.534;8.316;2023-04-06T15:10:38;23.33;;;8.43;;
3625;SDS011;1827;50.534;8.316;2023-04-06T15:13:04;25.80;;;8.57;;
3625;SDS011;1827;50.534;8.316;2023-04-06T15:15:30;22.20;;;7.70;;
3625;SDS011;1827;50.534;8.316;2023-04-06T15:17:56;23.50;;;7.83;;
3625;SDS011;1827;50.534;8.316;2023-04-06T15:20:21;22.80;;;7.90;;
3625;SDS011;1827;50.534;8.316;2023-04-06T15:22:47;29.73;;;8.40;;
3625;SDS011;1827;50.534;8.316;2023-04-06T15:25:14;23.80;;;8.73;;
3625;SDS011;1827;50.534;8.316;2023-04-06T15:27:40;22.63;;;7.43;;
3625;SDS011;1827;50.534;8.316;2023-04-06T15:30:06;22.40;;;7.90;;
3625;SDS011;1827;50.534;8.316;2023-04-06T15:32:32;26.77;;;7.40;;
3625;SDS011;1827;50.534;8.316;2023-04-06T15:34:58;21.83;;;7.50;;
3625;SDS011;1827;50.534;8.316;2023-04-06T15:37:25;25.97;;;7.50;;
3625;SDS011;1827;50.534;8.316;2023-04-06T15:39:51;23.70;;;7.30;;
3625;SDS011;1827;50.534;8.316;2023-04-06T15:42:17;22.83;;;7.40;;
3625;SDS011;1827;50.534;8.316;2023-04-06T15:44:46;24.57;;;7.20;;
3625;SDS011;1827;50.534;8.316;2023-04-06T15:47:11;30.87;;;8.10;;
3625;SDS011;1827;50.534;8.316;2023-04-06T15:49:37;21.40;;;7.10;;
3625;SDS011;1827;50.534;8.316;2023-04-06T15:52:03;22.50;;;7.23;;
3625;SDS011;1827;50.534;8.316;2023-04-06T15:54:29;23.80;;;7.73;;
3625;SDS011;1827;50.534;8.316;2023-04-06T15:56:55;21.87;;;7.47;;
3625;SDS011;1827;50.534;8.316;2023-04-06T15:59:21;22.77;;;7.53;;
3625;SDS011;1827;50.534;8.316;2023-04-06T16:01:47;21.43;;;7.20;;
3625;SDS011;1827;50.534;8.316;2023-04-06T16:04:12;25.63;;;7.97;;
3625;SDS011;1827;50.534;8.316;2023-04-06T16:06:38;23.00;;;6.80;;
3625;SDS011;1827;50.534;8.316;2023-04-06T16:09:04;25.77;;;7.93;;
3625;SDS011;1827;50.534;8.316;2023-04-06T16:11:30;22.27;;;8.00;;
3625;SDS011;1827;50.534;8.316;2023-04-06T16:13:56;25.17;;;8.53;;
3625;SDS011;1827;50.534;8.316;2023-04-06T16:16:22;23.57;;;8.30;;
3625;SDS011;1827;50.534;8.316;2023-04-06T16:18:48;22.23;;;7.50;;
3625;SDS011;1827;50.534;8.316;2023-04-06T16:21:14;24.50;;;8.13;;
3625;SDS011;1827;50.534;8.316;2023-04-06T16:23:45;23.63;;;8.17;;
3625;SDS011;1827;50.534;8.316;2023-04-06T16:26:12;30.70;;;8.27;;
3625;SDS011;1827;50.534;8.316;2023-04-06T16:28:45;28.40;;;8.43;;
3625;SDS011;1827;50.534;8.316;2023-04-06T16:31:21;27.37;;;9.60;;
3625;SDS011;1827;50.534;8.316;2023-04-06T16:33:48;23.60;;;8.13;;
3625;SDS011;1827;50.534;8.316;2023-04-06T16:36:20;25.73;;;8.47;;
3625;SDS011;1827;50.534;8.316;2023-04-06T16:38:50;28.43;;;7.80;;
3625;SDS011;1827;50.534;8.316;2023-04-06T16:41:16;27.60;;;10.77;;
3625;SDS011;1827;50.534;8.316;2023-04-06T16:43:42;25.70;;;9.43;;
3625;SDS011;1827;50.534;8.316;2023-04-06T16:46:08;27.90;;;9.23;;
3625;SDS011;1827;50.534;8.316;2023-04-06T16:48:33;23.07;;;8.57;;
3625;SDS011;1827;50.534;8.316;2023-04-06T16:51:04;29.10;;;9.90;;
3625;SDS011;1827;50.534;8.316;2023-04-06T16:53:31;24.20;;;9.30;;
3625;SDS011;1827;50.534;8.316;2023-04-06T16:55:56;24.97;;;9.90;;
3625;SDS011;1827;50.534;8.316;2023-04-06T16:58:22;35.47;;;10.53;;
3625;SDS011;1827;50.534;8.316;2023-04-06T17:00:48;23.53;;;8.53;;
3625;SDS011;1827;50.534;8.316;2023-04-06T17:03:14;22.73;;;7.90;;
3625;SDS011;1827;50.534;8.316;2023-04-06T17:05:40;30.80;;;8.70;;
3625;SDS011;1827;50.534;8.316;2023-04-06T17:08:05;26.37;;;9.33;;
3625;SDS011;1827;50.534;8.316;2023-04-06T17:10:31;24.77;;;8.57;;
3625;SDS011;1827;50.534;8.316;2023-04-06T17:12:57;24.57;;;8.47;;
3625;SDS011;1827;50.534;8.316;2023-04-06T17:15:23;26.50;;;9.00;;
3625;SDS011;1827;50.534;8.316;2023-04-06T17:17:49;22.13;;;7.77;;
3625;SDS011;1827;50.534;8.316;2023-04-06T17:20:16;22.80;;;8.07;;
3625;SDS011;1827;50.534;8.316;2023-04-06T17:22:43;23.40;;;7.40;;
3625;SDS011;1827;50.534;8.316;2023-04-06T17:25:10;24.57;;;8.30;;
3625;SDS011;1827;50.534;8.316;2023-04-06T17:27:36;37.20;;;8.47;;
3625;SDS011;1827;50.534;8.316;2023-04-06T17:30:02;23.77;;;8.97;;
3625;SDS011;1827;50.534;8.316;2023-04-06T17:32:31;21.60;;;7.97;;
3625;SDS011;1827;50.534;8.316;2023-04-06T17:34:58;23.97;;;8.30;;
3625;SDS011;1827;50.534;8.316;2023-04-06T17:37:23;23.17;;;7.60;;
3625;SDS011;1827;50.534;8.316;2023-04-06T17:39:49;23.80;;;7.07;;
3625;SDS011;1827;50.534;8.316;2023-04-06T17:42:15;25.93;;;8.10;;
3625;SDS011;1827;50.534;8.316;2023-04-06T17:44:42;21.47;;;7.07;;
3625;SDS011;1827;50.534;8.316;2023-04-06T17:47:08;24.03;;;7.30;;
3625;SDS011;1827;50.534;8.316;2023-04-06T17:49:33;24.40;;;8.00;;
3625;SDS011;1827;50.534;8.316;2023-04-06T17:51:59;20.17;;;6.50;;
3625;SDS011;1827;50.534;8.316;2023-04-06T17:54:25;25.93;;;9.20;;
3625;SDS011;1827;50.534;8.316;2023-04-06T17:56:51;24.97;;;8.30;;
3625;SDS011;1827;50.534;8.316;2023-04-06T17:59:17;24.07;;;8.23;;
3625;SDS011;1827;50.534;8.316;2023-04-06T18:01:43;22.17;;;7.03;;
3625;SDS011;1827;50.534;8.316;2023-04-06T18:04:09;24.17;;;6.60;;
3625;SDS011;1827;50.534;8.316;2023-04-06T18:06:35;25.30;;;7.50;;
3625;SDS011;1827;50.534;8.316;2023-04-06T18:09:01;21.30;;;7.23;;
3625;SDS011;1827;50.534;8.316;2023-04-06T18:11:28;22.70;;;7.73;;
3625;SDS011;1827;50.534;8.316;2023-04-06T18:13:55;24.47;;;9.17;;
3625;SDS011;1827;50.534;8.316;2023-04-06T18:16:21;21.80;;;7.80;;
3625;SDS011;1827;50.534;8.316;2023-04-06T18:18:47;24.97;;;8.53;;
3625;SDS011;1827;50.534;8.316;2023-04-06T18:21:13;25.13;;;8.70;;
3625;SDS011;1827;50.534;8.316;2023-04-06T18:23:39;25.37;;;9.20;;
3625;SDS011;1827;50.534;8.316;2023-04-06T18:26:05;24.07;;;8.90;;
3625;SDS011;1827;50.534;8.316;2023-04-06T18:28:31;22.10;;;7.97;;
3625;SDS011;1827;50.534;8.316;2023-04-06T18:30:58;23.87;;;7.97;;
3625;SDS011;1827;50.534;8.316;2023-04-06T18:33:24;20.30;;;7.50;;
3625;SDS011;1827;50.534;8.316;2023-04-06T18:35:53;22.90;;;9.13;;
3625;SDS011;1827;50.534;8.316;2023-04-06T18:38:21;21.20;;;8.10;;
3625;SDS011;1827;50.534;8.316;2023-04-06T18:40:47;24.17;;;8.50;;
3625;SDS011;1827;50.534;8.316;2023-04-06T18:43:13;27.43;;;9.57;;
3625;SDS011;1827;50.534;8.316;2023-04-06T18:45:39;26.03;;;8.77;;
3625;SDS011;1827;50.534;8.316;2023-04-06T18:48:07;23.50;;;8.40;;
3625;SDS011;1827;50.534;8.316;2023-04-06T18:50:34;22.57;;;9.37;;
3625;SDS011;1827;50.534;8.316;2023-04-06T18:53:00;26.70;;;10.00;;
3625;SDS011;1827;50.534;8.316;2023-04-06T18:55:26;30.50;;;11.40;;
3625;SDS011;1827;50.534;8.316;2023-04-06T18:57:52;28.80;;;10.90;;
3625;SDS011;1827;50.534;8.316;2023-04-06T19:00:18;25.27;;;9.80;;
3625;SDS011;1827;50.534;8.316;2023-04-06T19:02:44;23.23;;;9.30;;
3625;SDS011;1827;50.534;8.316;2023-04-06T19:05:10;27.50;;;9.83;;
3625;SDS011;1827;50.534;8.316;2023-04-06T19:07:36;24.80;;;9.93;;
3625;SDS011;1827;50.534;8.316;2023-04-06T19:10:04;26.73;;;10.70;;
3625;SDS011;1827;50.534;8.316;2023-04-06T19:12:32;28.87;;;11.97;;
3625;SDS011;1827;50.534;8.316;2023-04-06T19:14:59;24.93;;;9.77;;
3625;SDS011;1827;50.534;8.316;2023-04-06T19:17:25;32.00;;;12.00;;
3625;SDS011;1827;50.534;8.316;2023-04-06T19:19:51;32.23;;;12.00;;
3625;SDS011;1827;50.534;8.316;2023-04-06T19:22:16;29.37;;;11.97;;
3625;SDS011;1827;50.534;8.316;2023-04-06T19:24:42;28.73;;;11.60;;
3625;SDS011;1827;50.534;8.316;2023-04-06T19:27:08;28.20;;;11.10;;
3625;SDS011;1827;50.534;8.316;2023-04-06T19:29:34;32.80;;;11.33;;
3625;SDS011;1827;50.534;8.316;2023-04-06T19:32:02;31.70;;;12.30;;
3625;SDS011;1827;50.534;8.316;2023-04-06T19:34:31;28.70;;;11.40;;
3625;SDS011;1827;50.534;8.316;2023-04-06T19:36:56;24.07;;;10.70;;
3625;SDS011;1827;50.534;8.316;2023-04-06T19:39:22;25.90;;;11.00;;
3625;SDS011;1827;50.534;8.316;2023-04-06T19:41:50;28.93;;;11.97;;
3625;SDS011;1827;50.534;8.316;2023-04-06T19:44:16;27.70;;;12.17;;
3625;SDS011;1827;50.534;8.316;2023-04-06T19:46:42;27.70;;;12.20;;
3625;SDS011;1827;50.534;8.316;2023-04-06T19:49:10;26.17;;;11.60;;
3625;SDS011;1827;50.534;8.316;2023-04-06T19:51:37;27.83;;;12.30;;
3625;SDS011;1827;50.534;8.316;2023-04-06T19:54:03;27.60;;;11.30;;
3625;SDS011;1827;50.534;8.316;2023-04-06T19:56:30;30.10;;;13.03;;
3625;SDS011;1827;50.534;8.316;2023-04-06T19:58:56;25.50;;;11.17;;
3625;SDS011;1827;50.534;8.316;2023-04-06T20:01:22;27.70;;;12.63;;
3625;SDS011;1827;50.534;8.316;2023-04-06T20:03:48;30.60;;;13.00;;
3625;SDS011;1827;50.534;8.316;2023-04-06T20:06:14;25.40;;;11.70;;
3625;SDS011;1827;50.534;8.316;2023-04-06T20:08:41;31.00;;;13.07;;
3625;SDS011;1827;50.534;8.316;2023-04-06T20:11:06;27.37;;;11.83;;
3625;SDS011;1827;50.534;8.316;2023-04-06T20:13:32;33.70;;;11.93;;
3625;SDS011;1827;50.534;8.316;2023-04-06T20:15:58;31.67;;;12.80;;
3625;SDS011;1827;50.534;8.316;2023-04-06T20:18:24;31.87;;;14.60;;
3625;SDS011;1827;50.534;8.316;2023-04-06T20:20:50;33.20;;;15.03;;
3625;SDS011;1827;50.534;8.316;2023-04-06T20:23:16;27.57;;;13.00;;
3625;SDS011;1827;50.534;8.316;2023-04-06T20:25:42;28.37;;;12.43;;
3625;SDS011;1827;50.534;8.316;2023-04-06T20:28:08;27.40;;;12.40;;
3625;SDS011;1827;50.534;8.316;2023-04-06T20:30:34;31.60;;;12.80;;
3625;SDS011;1827;50.534;8.316;2023-04-06T20:33:00;29.40;;;13.20;;
3625;SDS011;1827;50.534;8.316;2023-04-06T20:35:26;30.03;;;13.07;;
3625;SDS011;1827;50.534;8.316;2023-04-06T20:37:52;29.00;;;13.07;;
3625;SDS011;1827;50.534;8.316;2023-04-06T20:40:18;26.40;;;11.50;;
3625;SDS011;1827;50.534;8.316;2023-04-06T20:42:44;27.23;;;12.07;;
